Time;durP1;ratioP1;P1;durP2;ratioP2;P2;SDS_P1;SDS_P2;PMS_P1;PMS_P2;Temp;Humidity;BMP_temperature;BMP_pressure;BME280_temperature;BME280_humidity;BME280_pressure;Samples;Min_cycle;Max_cycle;Signal;HPM_P1;HPM_P2
2023/05/07 00:01:26;;;;;;;15.10;13.48;;;15.40;99.90;;;;;;5164084;27;20039;-60
2023/05/07 00:03:51;;;;;;;16.17;14.30;;;15.40;99.90;;;;;;5168954;27;20034;-61
2023/05/07 00:06:17;;;;;;;14.63;12.75;;;15.40;99.90;;;;;;5170250;27;20378;-60
2023/05/07 00:08:43;;;;;;;15.50;13.90;;;15.40;99.90;;;;;;5170949;27;20128;-61
2023/05/07 00:11:09;;;;;;;16.75;15.00;;;15.40;99.90;;;;;;5171603;27;20080;-62
2023/05/07 00:13:35;;;;;;;14.05;12.65;;;15.40;99.90;;;;;;5137775;27;20046;-63
2023/05/07 00:16:04;;;;;;;15.85;14.18;;;15.40;99.90;;;;;;5171758;27;20030;-62
2023/05/07 00:18:30;;;;;;;15.55;13.75;;;15.40;99.90;;;;;;5170440;27;20033;-59
2023/05/07 00:20:56;;;;;;;14.88;13.27;;;15.40;99.90;;;;;;5171138;27;20046;-63
2023/05/07 00:23:22;;;;;;;15.18;13.57;;;15.40;99.90;;;;;;5170864;27;20149;-62
2023/05/07 00:25:47;;;;;;;17.92;15.80;;;15.40;99.90;;;;;;5172047;27;20396;-63
2023/05/07 00:28:13;;;;;;;15.07;13.52;;;15.40;99.90;;;;;;5169737;27;20045;-63
2023/05/07 00:30:39;;;;;;;18.05;16.25;;;15.40;99.90;;;;;;5171405;27;20054;-64
2023/05/07 00:33:05;;;;;;;15.98;13.88;;;15.40;99.90;;;;;;5173051;27;20109;-63
2023/05/07 00:35:30;;;;;;;16.65;14.95;;;15.40;99.90;;;;;;5174125;27;20053;-64
2023/05/07 00:37:56;;;;;;;16.95;14.85;;;15.30;99.90;;;;;;5175154;27;20034;-61
2023/05/07 00:40:22;;;;;;;16.63;15.02;;;15.40;99.90;;;;;;5141150;27;20046;-60
2023/05/07 00:42:48;;;;;;;18.75;16.50;;;15.30;99.90;;;;;;5171729;27;20469;-62
2023/05/07 00:45:15;;;;;;;17.38;14.90;;;15.30;99.90;;;;;;5174957;27;20070;-62
2023/05/07 00:47:41;;;;;;;19.38;17.33;;;15.20;99.90;;;;;;5168123;27;20033;-62
2023/05/07 00:50:09;;;;;;;18.25;16.42;;;15.20;99.90;;;;;;5137902;27;20351;-62
2023/05/07 00:52:36;;;;;;;19.30;17.15;;;15.20;99.90;;;;;;5173085;27;20086;-63
2023/05/07 00:55:06;;;;;;;19.20;17.38;;;15.30;99.90;;;;;;5174250;27;20034;-63
2023/05/07 00:57:40;;;;;;;23.42;20.90;;;15.20;99.90;;;;;;5172090;27;20030;-63
2023/05/07 01:00:08;;;;;;;20.85;18.65;;;15.20;99.90;;;;;;5174433;27;20037;-61
2023/05/07 01:02:35;;;;;;;21.52;19.10;;;15.20;99.90;;;;;;5175108;27;20034;-63
2023/05/07 01:05:03;;;;;;;21.15;18.75;;;15.20;99.90;;;;;;5173110;27;20042;-62
2023/05/07 01:07:30;;;;;;;22.63;20.33;;;15.20;99.90;;;;;;5174532;27;20053;-61
2023/05/07 01:09:57;;;;;;;22.65;20.38;;;15.10;99.90;;;;;;5174297;27;20072;-63
2023/05/07 01:12:24;;;;;;;23.08;20.67;;;15.10;99.90;;;;;;5174997;27;20050;-62
2023/05/07 01:14:50;;;;;;;24.98;22.42;;;15.10;99.90;;;;;;5168465;27;20096;-64
2023/05/07 01:17:16;;;;;;;26.13;22.25;;;15.00;99.90;;;;;;5135651;27;20107;-63
2023/05/07 01:19:42;;;;;;;26.40;23.70;;;15.10;99.90;;;;;;5158258;27;20461;-62
2023/05/07 01:22:10;;;;;;;24.98;22.45;;;15.00;99.90;;;;;;5154055;27;20149;-63
2023/05/07 01:24:37;;;;;;;26.10;23.45;;;15.00;99.90;;;;;;5172657;27;20078;-61
2023/05/07 01:27:03;;;;;;;26.75;24.10;;;15.00;99.90;;;;;;5174578;27;20045;-62
2023/05/07 01:29:29;;;;;;;24.77;22.25;;;14.90;99.90;;;;;;5173385;27;20274;-63
2023/05/07 01:31:59;;;;;;;24.65;22.10;;;15.00;99.90;;;;;;5166577;27;20125;-61
2023/05/07 01:34:28;;;;;;;25.25;22.75;;;14.90;99.90;;;;;;5172097;27;20030;-60
2023/05/07 01:36:57;;;;;;;26.27;23.58;;;14.90;99.90;;;;;;5173564;27;20039;-63
2023/05/07 01:39:29;;;;;;;26.15;23.38;;;14.90;99.90;;;;;;5147033;27;20516;-61
2023/05/07 01:41:56;;;;;;;28.48;25.20;;;14.90;99.90;;;;;;5172172;27;20048;-59
2023/05/07 01:44:23;;;;;;;25.63;23.13;;;14.90;99.90;;;;;;5172864;27;20485;-61
2023/05/07 01:46:49;;;;;;;26.83;23.98;;;14.80;99.90;;;;;;5174091;27;20473;-63
2023/05/07 01:49:16;;;;;;;26.50;23.70;;;14.80;99.90;;;;;;5172733;27;20057;-62
2023/05/07 01:51:42;;;;;;;26.42;23.63;;;14.80;99.90;;;;;;5174593;27;20043;-61
2023/05/07 01:54:08;;;;;;;25.58;22.88;;;14.80;99.90;;;;;;5173781;27;20070;-61
2023/05/07 01:56:34;;;;;;;25.10;21.88;;;14.80;99.90;;;;;;5173421;27;20080;-61
2023/05/07 01:59:00;;;;;;;24.60;22.00;;;14.70;99.90;;;;;;5172500;27;20110;-60
2023/05/07 02:01:26;;;;;;;26.67;23.00;;;14.70;99.90;;;;;;5173111;27;20117;-60
2023/05/07 02:03:51;;;;;;;24.77;21.35;;;14.70;99.90;;;;;;5132297;27;20130;-63
2023/05/07 02:06:17;;;;;;;23.65;21.13;;;14.60;99.90;;;;;;5159342;27;20046;-62
2023/05/07 02:08:43;;;;;;;22.17;19.77;;;14.60;99.90;;;;;;5172075;27;20030;-62
2023/05/07 02:11:08;;;;;;;25.35;20.92;;;14.60;99.90;;;;;;5173220;27;20063;-64
2023/05/07 02:13:34;;;;;;;25.27;19.83;;;14.50;99.90;;;;;;5131968;27;21383;-64
2023/05/07 02:16:01;;;;;;;23.45;20.95;;;14.50;99.90;;;;;;5134112;27;20042;-60
2023/05/07 02:18:26;;;;;;;26.20;18.88;;;14.50;99.90;;;;;;5171527;27;20074;-61
2023/05/07 02:20:52;;;;;;;21.13;18.67;;;14.50;99.90;;;;;;5135776;27;20090;-63
2023/05/07 02:23:18;;;;;;;24.25;19.52;;;14.50;99.90;;;;;;5145724;27;20445;-61
2023/05/07 02:25:43;;;;;;;24.48;19.98;;;14.40;99.90;;;;;;5173420;27;20078;-60
2023/05/07 02:28:09;;;;;;;23.55;17.90;;;14.40;99.90;;;;;;5172937;27;20113;-62
2023/05/07 02:30:36;;;;;;;22.73;17.50;;;14.30;99.90;;;;;;5172767;27;20035;-62
2023/05/07 02:33:02;;;;;;;23.48;17.33;;;14.30;99.90;;;;;;5172043;27;20026;-62
2023/05/07 02:35:28;;;;;;;19.55;17.33;;;14.20;99.90;;;;;;5171652;27;20125;-63
2023/05/07 02:37:53;;;;;;;21.70;17.73;;;14.20;99.90;;;;;;5172177;27;20052;-61
2023/05/07 02:40:19;;;;;;;21.50;18.77;;;14.20;99.90;;;;;;5172081;27;20030;-60
2023/05/07 02:42:45;;;;;;;22.52;18.98;;;14.10;99.90;;;;;;5172307;27;20153;-60
2023/05/07 02:45:10;;;;;;;26.30;18.67;;;14.10;99.90;;;;;;5172223;27;20030;-63
2023/05/07 02:47:36;;;;;;;21.13;18.83;;;14.10;99.90;;;;;;5129288;27;20043;-62
2023/05/07 02:50:03;;;;;;;23.33;17.70;;;14.10;99.90;;;;;;5154930;27;20026;-61
2023/05/07 02:52:29;;;;;;;21.58;19.27;;;14.10;99.90;;;;;;5170962;27;20034;-63
2023/05/07 02:54:55;;;;;;;23.30;19.75;;;14.00;99.90;;;;;;5171409;27;20053;-64
2023/05/07 02:57:20;;;;;;;25.80;19.85;;;14.00;99.90;;;;;;5171161;27;20034;-60
2023/05/07 02:59:46;;;;;;;24.88;20.77;;;13.90;99.90;;;;;;5172931;27;20038;-62
2023/05/07 03:02:12;;;;;;;23.73;20.63;;;13.90;99.90;;;;;;5165597;27;20468;-64
2023/05/07 03:04:39;;;;;;;23.80;19.77;;;13.90;99.90;;;;;;5169718;27;20045;-60
2023/05/07 03:07:05;;;;;;;25.65;19.63;;;13.90;99.90;;;;;;5171698;27;20045;-61
2023/05/07 03:09:30;;;;;;;25.65;21.40;;;13.80;99.90;;;;;;5171716;27;20030;-60
2023/05/07 03:11:56;;;;;;;24.95;22.17;;;13.80;99.90;;;;;;5130293;27;20080;-64
2023/05/07 03:14:22;;;;;;;27.42;20.77;;;13.70;99.90;;;;;;5129780;27;20084;-63
2023/05/07 03:16:49;;;;;;;23.55;21.05;;;13.70;99.90;;;;;;5128802;27;20533;-60
2023/05/07 03:19:15;;;;;;;25.40;20.27;;;13.70;99.90;;;;;;5130625;27;20043;-63
2023/05/07 03:21:41;;;;;;;24.60;21.63;;;13.60;99.90;;;;;;5129588;27;20031;-61
2023/05/07 03:24:07;;;;;;;24.15;19.58;;;13.60;99.90;;;;;;5129715;27;20502;-62
2023/05/07 03:26:32;;;;;;;26.48;21.00;;;13.60;99.90;;;;;;5127495;27;20043;-60
2023/05/07 03:28:58;;;;;;;25.83;21.45;;;13.50;99.90;;;;;;5130809;27;20100;-62
2023/05/07 03:31:24;;;;;;;25.13;20.60;;;13.50;99.90;;;;;;5129721;27;20039;-61
2023/05/07 03:33:54;;;;;;;26.45;20.70;;;13.50;99.90;;;;;;5131345;27;20071;-62
2023/05/07 03:36:21;;;;;;;26.52;21.45;;;13.50;99.90;;;;;;5129176;27;20035;-59
2023/05/07 03:38:47;;;;;;;27.77;22.60;;;13.40;99.90;;;;;;5129201;27;20039;-65
2023/05/07 03:41:13;;;;;;;26.65;20.35;;;13.40;99.90;;;;;;5129363;27;20062;-61
2023/05/07 03:43:39;;;;;;;27.60;22.23;;;13.40;99.90;;;;;;5124390;27;20066;-62
2023/05/07 03:46:05;;;;;;;27.90;23.23;;;13.30;99.90;;;;;;5128693;28;20043;-61
2023/05/07 03:48:30;;;;;;;28.13;22.35;;;13.30;99.90;;;;;;5128802;28;20039;-61
2023/05/07 03:50:57;;;;;;;29.08;22.73;;;13.30;99.90;;;;;;5129215;28;20050;-59
2023/05/07 03:53:23;;;;;;;28.20;21.40;;;13.20;99.90;;;;;;5128589;27;20042;-63
2023/05/07 03:55:49;;;;;;;29.45;21.70;;;13.20;99.90;;;;;;5129001;28;20386;-64
2023/05/07 03:58:15;;;;;;;27.67;21.45;;;13.20;99.90;;;;;;5128966;28;20058;-61
2023/05/07 04:00:41;;;;;;;29.25;22.10;;;13.20;99.90;;;;;;5128190;28;20038;-62
2023/05/07 04:03:07;;;;;;;27.23;21.77;;;13.20;99.90;;;;;;5129808;28;20028;-63
2023/05/07 04:05:33;;;;;;;29.83;21.30;;;13.10;99.90;;;;;;5128675;27;20039;-60
2023/05/07 04:07:59;;;;;;;27.88;21.88;;;13.10;99.90;;;;;;5133869;27;20046;-62
2023/05/07 04:10:25;;;;;;;29.23;22.73;;;13.10;99.90;;;;;;5133483;27;20041;-62
2023/05/07 04:12:50;;;;;;;32.92;23.33;;;13.10;99.90;;;;;;5159176;27;20493;-61
2023/05/07 04:15:16;;;;;;;30.73;22.70;;;13.00;99.90;;;;;;5175914;27;20135;-60
2023/05/07 04:17:42;;;;;;;30.75;25.80;;;13.00;99.90;;;;;;5175774;27;20038;-59
2023/05/07 04:20:17;;;;;;;33.45;24.20;;;13.00;99.90;;;;;;5174154;27;20508;-63
2023/05/07 04:22:43;;;;;;;30.10;23.50;;;13.00;99.90;;;;;;5167549;27;20046;-60
2023/05/07 04:25:09;;;;;;;31.77;23.58;;;12.90;99.90;;;;;;5135022;27;20092;-61
2023/05/07 04:27:35;;;;;;;35.17;24.92;;;12.90;99.90;;;;;;5141478;27;20041;-62
2023/05/07 04:30:02;;;;;;;29.98;22.85;;;12.90;99.90;;;;;;5172564;27;20039;-62
2023/05/07 04:32:29;;;;;;;31.13;25.38;;;12.90;99.90;;;;;;5176076;27;20469;-60
2023/05/07 04:34:55;;;;;;;31.75;23.45;;;12.90;99.90;;;;;;5174714;27;20102;-61
2023/05/07 04:37:21;;;;;;;32.63;24.10;;;12.90;99.90;;;;;;5141949;27;20042;-62
2023/05/07 04:39:47;;;;;;;34.22;25.80;;;12.90;99.90;;;;;;5172639;27;20500;-61
2023/05/07 04:42:16;;;;;;;32.92;24.38;;;12.80;99.90;;;;;;5174974;27;20078;-60
2023/05/07 04:44:43;;;;;;;31.75;25.05;;;12.80;99.90;;;;;;5174985;27;20070;-61
2023/05/07 04:47:09;;;;;;;31.55;24.70;;;12.80;99.90;;;;;;5174144;27;20094;-62
2023/05/07 04:49:37;;;;;;;36.67;25.52;;;12.70;99.90;;;;;;5173967;27;20518;-60
2023/05/07 04:52:03;;;;;;;33.30;25.85;;;12.80;99.90;;;;;;5174900;27;20058;-63
2023/05/07 04:54:29;;;;;;;34.45;24.77;;;12.70;99.90;;;;;;5174191;27;20030;-62
2023/05/07 04:56:55;;;;;;;35.42;26.67;;;12.70;99.90;;;;;;5170396;27;20085;-61
2023/05/07 04:59:21;;;;;;;40.70;26.80;;;12.70;99.90;;;;;;5172297;27;20469;-59
2023/05/07 05:01:47;;;;;;;39.05;26.85;;;12.70;99.90;;;;;;5173812;27;20050;-60
2023/05/07 05:04:13;;;;;;;34.28;27.85;;;12.70;99.90;;;;;;5173219;27;20050;-63
2023/05/07 05:06:39;;;;;;;36.20;26.63;;;12.70;99.90;;;;;;5170065;27;20038;-61
2023/05/07 05:09:05;;;;;;;38.40;27.50;;;12.70;99.90;;;;;;5172002;27;20056;-64
2023/05/07 05:11:31;;;;;;;38.78;27.90;;;12.70;99.90;;;;;;5174085;27;20026;-60
2023/05/07 05:13:59;;;;;;;39.38;28.25;;;12.70;99.90;;;;;;5173983;27;20469;-60
2023/05/07 05:16:24;;;;;;;38.00;28.60;;;12.70;99.90;;;;;;5174056;27;20038;-60
2023/05/07 05:18:51;;;;;;;39.38;28.80;;;12.70;99.90;;;;;;5173583;27;20035;-60
2023/05/07 05:21:17;;;;;;;40.50;29.33;;;12.70;99.90;;;;;;5173561;27;20069;-61
2023/05/07 05:23:43;;;;;;;44.00;29.45;;;12.70;99.90;;;;;;5171862;27;20496;-61
2023/05/07 05:26:09;;;;;;;37.95;26.83;;;12.70;99.90;;;;;;5171055;27;20495;-60
2023/05/07 05:28:34;;;;;;;40.70;29.05;;;12.70;99.90;;;;;;5175280;27;20045;-63
2023/05/07 05:31:00;;;;;;;43.53;29.65;;;12.70;99.90;;;;;;5175678;27;20030;-63
2023/05/07 05:33:26;;;;;;;43.05;30.02;;;12.70;99.90;;;;;;5172952;27;20034;-62
2023/05/07 05:35:51;;;;;;;41.33;30.77;;;12.70;99.90;;;;;;5173996;27;20045;-62
2023/05/07 05:38:17;;;;;;;37.22;31.70;;;12.70;99.90;;;;;;5173512;27;20034;-64
2023/05/07 05:40:43;;;;;;;41.78;30.80;;;12.80;99.90;;;;;;5173877;27;20043;-61
2023/05/07 05:43:08;;;;;;;42.03;29.73;;;12.80;99.90;;;;;;5173280;27;20034;-63
2023/05/07 05:45:34;;;;;;;39.95;28.60;;;12.80;99.90;;;;;;5175063;27;20038;-63
2023/05/07 05:48:00;;;;;;;41.47;29.45;;;12.80;99.90;;;;;;5174865;27;20042;-60
2023/05/07 05:50:26;;;;;;;40.65;31.48;;;12.90;99.90;;;;;;5173669;27;20034;-61
2023/05/07 05:52:51;;;;;;;41.00;29.98;;;12.80;99.90;;;;;;5164500;27;20129;-61
2023/05/07 05:55:17;;;;;;;43.63;30.45;;;12.90;99.90;;;;;;5137942;27;20050;-62
2023/05/07 05:57:43;;;;;;;40.33;29.55;;;12.90;99.90;;;;;;5173166;27;20129;-62
2023/05/07 06:00:09;;;;;;;40.95;30.02;;;12.90;99.90;;;;;;5174439;27;20426;-63
2023/05/07 06:02:35;;;;;;;41.47;30.42;;;12.90;99.90;;;;;;5141435;27;20363;-61
2023/05/07 06:05:01;;;;;;;38.28;29.58;;;12.80;99.90;;;;;;5171715;27;20045;-61
2023/05/07 06:07:26;;;;;;;44.60;30.63;;;12.80;99.90;;;;;;5138811;27;20489;-61
2023/05/07 06:09:52;;;;;;;41.30;29.77;;;12.80;99.90;;;;;;5173690;27;20050;-63
2023/05/07 06:12:18;;;;;;;40.80;30.10;;;12.80;99.90;;;;;;5171632;27;20081;-62
2023/05/07 06:14:44;;;;;;;40.80;30.70;;;12.80;99.90;;;;;;5174020;27;20026;-60
2023/05/07 06:17:09;;;;;;;41.47;29.50;;;12.80;99.90;;;;;;5172675;27;20469;-61
2023/05/07 06:19:35;;;;;;;40.67;29.20;;;12.80;99.90;;;;;;5173022;27;20029;-60
2023/05/07 06:22:02;;;;;;;43.38;30.80;;;12.80;99.90;;;;;;5137694;27;20046;-60
2023/05/07 06:24:28;;;;;;;46.00;31.63;;;12.70;99.90;;;;;;5170068;27;20049;-61
2023/05/07 06:26:54;;;;;;;41.00;30.13;;;12.80;99.90;;;;;;5170611;27;20030;-64
2023/05/07 06:29:19;;;;;;;37.92;29.25;;;12.70;99.90;;;;;;5172471;27;20389;-63
2023/05/07 06:31:45;;;;;;;40.15;29.08;;;12.70;99.90;;;;;;5173937;27;20084;-62
2023/05/07 06:34:14;;;;;;;40.58;29.05;;;12.80;99.90;;;;;;5173704;27;20429;-62
2023/05/07 06:36:40;;;;;;;37.17;31.40;;;12.80;99.90;;;;;;5167593;27;20121;-63
2023/05/07 06:39:06;;;;;;;40.80;29.27;;;12.90;99.90;;;;;;5131208;27;20047;-63
2023/05/07 06:41:31;;;;;;;41.05;30.17;;;12.90;99.90;;;;;;5160749;27;20036;-63
2023/05/07 06:43:57;;;;;;;41.55;29.08;;;13.00;99.90;;;;;;5171508;27;20075;-61
2023/05/07 06:46:23;;;;;;;43.53;29.10;;;13.00;99.90;;;;;;5171223;27;20042;-62
2023/05/07 06:48:48;;;;;;;40.03;29.00;;;13.10;99.90;;;;;;5172783;27;20034;-61
2023/05/07 06:51:14;;;;;;;40.63;28.85;;;13.20;99.90;;;;;;5172261;27;20031;-62
2023/05/07 06:53:40;;;;;;;39.03;28.70;;;13.30;99.90;;;;;;5172657;27;20439;-63
2023/05/07 06:56:06;;;;;;;39.97;29.23;;;13.40;99.90;;;;;;5171961;27;20037;-62
2023/05/07 06:58:32;;;;;;;36.42;30.10;;;13.50;99.90;;;;;;5171893;27;20031;-62
2023/05/07 07:00:57;;;;;;;37.47;28.00;;;13.60;99.90;;;;;;5171625;27;20034;-61
2023/05/07 07:03:23;;;;;;;36.65;29.70;;;13.70;99.90;;;;;;5130543;27;20080;-61
2023/05/07 07:05:52;;;;;;;32.47;28.75;;;13.80;99.90;;;;;;5136560;27;20042;-62
2023/05/07 07:08:20;;;;;;;39.20;27.95;;;13.90;99.90;;;;;;5172721;27;20033;-62
2023/05/07 07:10:47;;;;;;;31.65;27.52;;;14.00;99.90;;;;;;5138729;27;20042;-64
2023/05/07 07:13:12;;;;;;;33.88;26.73;;;14.00;99.90;;;;;;5171874;27;20066;-63
2023/05/07 07:15:38;;;;;;;32.60;27.83;;;14.00;99.90;;;;;;5172991;27;20038;-61
2023/05/07 07:18:04;;;;;;;35.95;25.98;;;14.20;99.90;;;;;;5155043;27;20110;-63
2023/05/07 07:20:30;;;;;;;31.60;27.13;;;14.20;99.90;;;;;;5126730;27;20111;-61
2023/05/07 07:22:55;;;;;;;31.70;26.65;;;14.30;99.90;;;;;;5150718;27;20059;-60
2023/05/07 07:25:21;;;;;;;33.30;28.20;;;14.30;99.90;;;;;;5171927;27;20042;-62
2023/05/07 07:27:47;;;;;;;30.27;26.85;;;14.30;99.90;;;;;;5170775;27;20464;-61
2023/05/07 07:30:13;;;;;;;36.83;26.98;;;14.30;99.90;;;;;;5168603;27;20045;-63
2023/05/07 07:32:38;;;;;;;32.17;27.00;;;14.30;99.90;;;;;;5170664;27;20038;-63
2023/05/07 07:35:05;;;;;;;31.33;27.20;;;14.40;99.90;;;;;;5171951;27;20049;-62
2023/05/07 07:37:30;;;;;;;30.00;25.83;;;14.40;99.90;;;;;;5160001;27;20059;-61
2023/05/07 07:39:56;;;;;;;30.98;26.30;;;14.50;99.90;;;;;;5151369;27;20069;-63
2023/05/07 07:42:22;;;;;;;32.20;26.52;;;14.50;99.90;;;;;;5155539;27;20053;-62
2023/05/07 07:44:48;;;;;;;31.20;26.27;;;14.50;99.90;;;;;;5153520;27;20422;-61
2023/05/07 07:47:14;;;;;;;32.65;26.00;;;14.50;99.90;;;;;;5156877;27;20046;-64
2023/05/07 07:49:39;;;;;;;33.30;26.48;;;14.60;99.90;;;;;;5150770;27;20034;-61
2023/05/07 07:52:05;;;;;;;28.83;25.67;;;14.70;99.90;;;;;;5154982;27;20034;-63
2023/05/07 07:54:31;;;;;;;29.60;25.95;;;14.70;99.90;;;;;;5156187;27;20069;-63
2023/05/07 07:56:57;;;;;;;31.55;26.52;;;14.90;99.90;;;;;;5153015;27;20083;-62
2023/05/07 07:59:23;;;;;;;32.63;26.35;;;14.90;99.90;;;;;;5149789;27;20037;-64
2023/05/07 08:01:50;;;;;;;29.80;26.08;;;15.00;99.90;;;;;;5127130;27;20046;-63
2023/05/07 08:04:15;;;;;;;31.33;27.25;;;15.10;99.90;;;;;;5156710;27;20524;-62
2023/05/07 08:06:42;;;;;;;30.40;26.45;;;15.10;99.90;;;;;;5153489;27;20023;-60
2023/05/07 08:09:08;;;;;;;30.42;26.88;;;15.20;99.90;;;;;;5156749;27;20041;-64
2023/05/07 08:11:34;;;;;;;31.08;26.27;;;15.20;99.90;;;;;;5152768;27;20409;-62
2023/05/07 08:14:00;;;;;;;31.05;27.48;;;15.30;99.90;;;;;;5153652;27;20038;-62
2023/05/07 08:16:25;;;;;;;32.75;27.10;;;15.30;99.90;;;;;;5152870;27;20039;-65
2023/05/07 08:18:51;;;;;;;30.02;26.83;;;15.40;99.90;;;;;;5153969;27;20385;-63
2023/05/07 08:21:17;;;;;;;30.27;25.67;;;15.50;99.90;;;;;;5152574;27;20030;-62
2023/05/07 08:23:42;;;;;;;34.78;26.67;;;15.70;99.90;;;;;;5154892;27;20041;-63
2023/05/07 08:26:08;;;;;;;33.72;26.25;;;15.80;99.90;;;;;;5154708;27;20046;-62
2023/05/07 08:28:34;;;;;;;30.38;25.77;;;15.80;99.90;;;;;;5154948;27;20038;-65
2023/05/07 08:31:00;;;;;;;29.90;26.55;;;16.00;99.90;;;;;;5154342;27;20027;-64
2023/05/07 08:33:26;;;;;;;30.95;25.38;;;16.00;99.90;;;;;;5157573;27;20093;-64
2023/05/07 08:35:52;;;;;;;30.02;26.08;;;16.10;99.90;;;;;;5153575;27;20055;-62
2023/05/07 08:38:18;;;;;;;29.65;25.65;;;16.20;99.90;;;;;;5154816;27;20114;-64
2023/05/07 08:40:43;;;;;;;28.42;24.85;;;16.20;99.90;;;;;;5154179;27;20039;-64
2023/05/07 08:43:12;;;;;;;33.15;25.67;;;16.20;99.90;;;;;;5155247;27;20035;-63
2023/05/07 08:45:40;;;;;;;29.15;26.02;;;16.20;99.90;;;;;;5150251;27;20034;-62
2023/05/07 08:48:09;;;;;;;29.48;25.92;;;16.30;99.90;;;;;;5153051;27;20026;-64
2023/05/07 08:50:36;;;;;;;30.10;25.23;;;16.40;99.90;;;;;;5153154;27;20065;-62
2023/05/07 08:53:05;;;;;;;33.58;27.52;;;16.60;99.90;;;;;;5154039;27;20481;-63
2023/05/07 08:55:31;;;;;;;28.52;24.63;;;16.70;99.90;;;;;;5155603;27;20057;-64
2023/05/07 08:57:57;;;;;;;29.50;24.85;;;16.80;99.90;;;;;;5155811;27;20470;-61
2023/05/07 09:00:22;;;;;;;29.10;23.33;;;17.00;99.90;;;;;;5157735;27;20090;-61
2023/05/07 09:02:48;;;;;;;28.77;23.90;;;17.10;99.90;;;;;;5155393;27;20056;-63
2023/05/07 09:05:14;;;;;;;28.95;24.90;;;17.20;99.90;;;;;;5158333;27;20034;-64
2023/05/07 09:07:40;;;;;;;30.02;24.98;;;17.30;99.90;;;;;;5157777;27;20034;-62
2023/05/07 09:10:06;;;;;;;27.08;24.17;;;17.40;99.90;;;;;;5155867;27;20042;-62
2023/05/07 09:12:32;;;;;;;28.70;25.48;;;17.40;99.90;;;;;;5132183;27;20093;-64
2023/05/07 09:14:59;;;;;;;28.80;23.92;;;17.50;99.90;;;;;;5156450;27;20067;-63
2023/05/07 09:17:25;;;;;;;28.33;24.73;;;17.60;99.90;;;;;;5158231;27;20031;-64
2023/05/07 09:19:50;;;;;;;29.35;24.60;;;17.60;99.90;;;;;;5156459;27;20113;-63
2023/05/07 09:22:16;;;;;;;27.80;24.33;;;17.60;99.90;;;;;;5155785;27;20094;-64
2023/05/07 09:24:48;;;;;;;26.63;22.80;;;17.50;99.90;;;;;;5158237;27;20038;-61
2023/05/07 09:27:14;;;;;;;28.42;24.55;;;17.50;99.90;;;;;;5158212;27;20034;-65
2023/05/07 09:29:40;;;;;;;29.15;24.90;;;17.50;99.90;;;;;;5128748;27;20094;-63
2023/05/07 09:32:07;;;;;;;28.90;25.90;;;17.40;99.90;;;;;;5158662;27;20115;-65
2023/05/07 09:34:32;;;;;;;27.90;23.45;;;17.40;99.90;;;;;;5157624;27;20465;-63
2023/05/07 09:37:02;;;;;;;30.15;25.00;;;17.50;99.90;;;;;;5158426;27;20458;-62
2023/05/07 09:39:40;;;;;;;30.17;24.83;;;17.60;99.90;;;;;;5156625;27;20056;-61
2023/05/07 09:42:06;;;;;;;27.95;24.45;;;17.70;99.90;;;;;;5155690;27;20047;-62
2023/05/07 09:44:33;;;;;;;27.73;23.73;;;17.80;99.90;;;;;;5157913;27;20038;-63
2023/05/07 09:47:00;;;;;;;26.48;23.30;;;17.90;99.90;;;;;;5158652;27;20126;-63
2023/05/07 09:49:29;;;;;;;27.63;24.38;;;18.00;99.90;;;;;;5155574;27;20050;-62
2023/05/07 09:51:58;;;;;;;27.80;23.55;;;18.20;99.90;;;;;;5131094;27;20053;-60
2023/05/07 09:54:24;;;;;;;29.23;24.02;;;18.50;99.90;;;;;;5158163;27;20026;-62
2023/05/07 09:56:52;;;;;;;29.63;25.05;;;18.80;99.90;;;;;;5157377;27;20065;-58
2023/05/07 09:59:18;;;;;;;29.33;23.77;;;19.10;99.90;;;;;;5155941;27;20030;-62
2023/05/07 10:01:44;;;;;;;25.55;22.58;;;19.10;99.90;;;;;;5156586;27;20122;-59
2023/05/07 10:04:11;;;;;;;27.25;23.27;;;19.30;99.90;;;;;;5154837;27;20049;-58
2023/05/07 10:06:37;;;;;;;27.75;23.63;;;19.30;99.90;;;;;;5154463;27;20041;-59
2023/05/07 10:09:07;;;;;;;27.10;23.25;;;19.40;99.90;;;;;;5157653;27;20484;-59
2023/05/07 10:11:34;;;;;;;28.15;22.73;;;19.60;99.90;;;;;;5126242;27;20099;-60
2023/05/07 10:14:02;;;;;;;28.90;22.38;;;19.60;99.90;;;;;;5148554;27;20111;-60
2023/05/07 10:16:36;;;;;;;26.50;22.33;;;19.50;99.90;;;;;;5129537;27;20045;-64
2023/05/07 10:19:06;;;;;;;24.48;21.55;;;19.60;99.90;;;;;;5156299;27;20029;-63
2023/05/07 10:21:35;;;;;;;25.40;22.02;;;19.70;99.90;;;;;;5155995;27;20046;-61
2023/05/07 10:24:17;;;;;;;27.02;22.40;;;19.70;99.90;;;;;;5155958;27;20121;-62
2023/05/07 10:26:46;;;;;;;24.10;21.35;;;19.70;99.90;;;;;;5147223;27;20034;-60
2023/05/07 10:29:26;;;;;;;24.95;21.33;;;20.00;99.90;;;;;;5152640;27;20038;-61
2023/05/07 10:32:08;;;;;;;26.45;22.10;;;20.00;99.90;;;;;;5155097;27;20038;-62
2023/05/07 10:34:38;;;;;;;26.52;21.25;;;20.00;99.90;;;;;;5156808;27;20070;-61
2023/05/07 10:37:04;;;;;;;22.58;20.15;;;19.90;99.90;;;;;;5154729;27;20030;-62
2023/05/07 10:39:30;;;;;;;27.63;21.75;;;20.00;99.90;;;;;;5157078;27;20038;-63
2023/05/07 10:41:56;;;;;;;26.30;22.60;;;19.90;99.90;;;;;;5154653;27;20035;-61
2023/05/07 10:44:26;;;;;;;24.85;21.48;;;19.90;99.90;;;;;;5153422;27;20114;-61
2023/05/07 10:47:16;;;;;;;25.95;22.42;;;19.80;99.90;;;;;;5127395;27;20030;-59
2023/05/07 10:49:41;;;;;;;27.67;21.23;;;19.80;99.90;;;;;;5126591;27;20035;-61
2023/05/07 10:52:16;;;;;;;24.55;20.75;;;19.80;99.90;;;;;;5153942;27;20446;-62
2023/05/07 10:54:46;;;;;;;25.65;21.67;;;19.90;99.90;;;;;;5129809;27;20042;-63
2023/05/07 10:57:36;;;;;;;24.60;21.33;;;20.00;99.90;;;;;;5154501;27;20046;-63
2023/05/07 11:00:24;;;;;;;26.60;22.38;;;20.20;99.90;;;;;;5151582;27;20043;-63
2023/05/07 11:03:01;;;;;;;24.80;20.90;;;20.30;99.90;;;;;;5153616;27;20038;-63
2023/05/07 11:05:30;;;;;;;25.73;21.65;;;20.50;99.90;;;;;;5153037;27;20043;-63
2023/05/07 11:08:01;;;;;;;24.23;20.25;;;20.60;99.90;;;;;;5154519;27;20353;-62
2023/05/07 11:10:56;;;;;;;22.83;19.58;;;20.70;99.90;;;;;;5154182;27;20034;-61
2023/05/07 11:13:42;;;;;;;24.98;19.50;;;20.70;99.90;;;;;;5152054;27;20049;-59
2023/05/07 11:16:22;;;;;;;22.30;19.20;;;20.70;99.90;;;;;;5155832;27;20037;-60
2023/05/07 11:18:52;;;;;;;22.50;19.90;;;20.80;99.90;;;;;;5131957;27;20030;-60
2023/05/07 11:21:39;;;;;;;23.25;19.95;;;20.80;99.90;;;;;;5149225;27;20505;-60
2023/05/07 11:24:10;;;;;;;24.38;19.02;;;20.80;99.90;;;;;;5151218;27;20091;-61
2023/05/07 11:27:02;;;;;;;21.63;18.85;;;20.90;99.90;;;;;;5131873;27;20112;-61
2023/05/07 11:29:28;;;;;;;20.30;18.08;;;21.00;99.90;;;;;;5165819;27;20558;-62
2023/05/07 11:31:55;;;;;;;23.10;19.02;;;21.10;99.90;;;;;;5170281;27;20065;-61
2023/05/07 11:34:25;;;;;;;23.95;20.42;;;21.30;99.90;;;;;;5171918;27;20117;-61
2023/05/07 11:36:52;;;;;;;23.75;20.38;;;21.40;99.90;;;;;;5170693;27;20051;-61
2023/05/07 11:39:26;;;;;;;22.55;17.83;;;21.50;99.90;;;;;;5172863;27;20109;-60
2023/05/07 11:41:51;;;;;;;22.85;18.52;;;21.70;99.90;;;;;;5171156;27;20030;-63
2023/05/07 11:44:17;;;;;;;20.83;17.60;;;21.90;99.90;;;;;;5172131;27;20098;-62
2023/05/07 11:46:44;;;;;;;23.75;18.83;;;22.00;99.90;;;;;;5172238;27;20571;-60
2023/05/07 11:49:10;;;;;;;23.95;19.70;;;22.00;99.90;;;;;;5171844;27;20119;-63
2023/05/07 11:51:36;;;;;;;23.58;19.40;;;21.90;99.90;;;;;;5172245;27;20122;-61
2023/05/07 11:54:08;;;;;;;23.10;17.73;;;21.60;99.90;;;;;;5171814;27;20500;-62
2023/05/07 11:56:35;;;;;;;20.50;16.92;;;21.60;99.90;;;;;;5155054;27;20034;-61
2023/05/07 11:59:00;;;;;;;21.55;18.42;;;21.60;99.90;;;;;;5172585;27;20126;-62
2023/05/07 12:01:26;;;;;;;19.98;16.65;;;21.60;99.90;;;;;;5145582;27;20108;-62
2023/05/07 12:03:52;;;;;;;21.65;16.05;;;21.60;99.90;;;;;;5171262;27;20042;-61
2023/05/07 12:06:18;;;;;;;21.50;16.52;;;21.60;99.90;;;;;;5172334;27;20026;-62
2023/05/07 12:08:45;;;;;;;24.65;18.67;;;21.60;99.90;;;;;;5171124;27;20099;-61
2023/05/07 12:11:18;;;;;;;20.92;18.00;;;21.60;99.90;;;;;;5171627;27;20047;-60
2023/05/07 12:13:43;;;;;;;21.17;18.35;;;21.70;99.90;;;;;;5170616;27;20034;-62
2023/05/07 12:16:09;;;;;;;19.95;17.55;;;21.90;99.90;;;;;;5170839;27;20041;-60
2023/05/07 12:18:36;;;;;;;20.55;17.60;;;21.90;99.90;;;;;;5171384;27;20035;-61
2023/05/07 12:21:02;;;;;;;20.45;16.90;;;21.90;99.90;;;;;;5137792;27;20035;-62
2023/05/07 12:23:29;;;;;;;17.60;15.80;;;21.70;99.90;;;;;;5172392;27;20030;-59
2023/05/07 12:25:54;;;;;;;19.15;16.13;;;21.60;99.90;;;;;;5171125;27;20090;-61
2023/05/07 12:28:20;;;;;;;18.85;15.13;;;21.50;99.90;;;;;;5146040;27;20043;-61